createdAt,value
2022-08-20T00:01:11.612Z,13.80
2022-08-20T00:06:17.568Z,13.02
2022-08-20T00:11:26.190Z,16.25
2022-08-20T00:16:35.043Z,15.77
2022-08-20T00:21:37.839Z,17.98
2022-08-20T00:26:52.809Z,16.73
2022-08-20T00:31:55.085Z,16.83
2022-08-20T00:36:57.308Z,16.40
2022-08-20T00:41:59.796Z,16.30
2022-08-20T00:47:02.366Z,16.85
2022-08-20T00:52:12.735Z,15.80
2022-08-20T00:57:43.794Z,16.23
2022-08-20T01:02:52.897Z,15.82
2022-08-20T01:07:56.062Z,15.27
2022-08-20T01:12:59.951Z,14.77
2022-08-20T01:18:02.770Z,14.98
2022-08-20T01:23:32.647Z,14.13
2022-08-20T01:28:43.857Z,14.13
2022-08-20T01:33:46.988Z,13.97
2022-08-20T01:38:54.150Z,13.95
2022-08-20T01:43:58.832Z,14.45
2022-08-20T01:49:13.635Z,14.73
2022-08-20T01:54:19.572Z,14.98
2022-08-20T01:59:22.183Z,14.48
2022-08-20T02:04:24.534Z,14.15
2022-08-20T02:09:30.143Z,13.88
2022-08-20T02:14:33.285Z,13.10
2022-08-20T02:19:39.456Z,12.38
2022-08-20T02:24:41.566Z,11.18
2022-08-20T02:29:43.788Z,11.45
2022-08-20T02:34:45.971Z,11.35
2022-08-20T02:39:48.139Z,10.75
2022-08-20T02:44:50.303Z,11.43
2022-08-20T02:49:52.714Z,11.23
2022-08-20T02:54:54.872Z,12.07
2022-08-20T02:59:57.083Z,12.07
2022-08-20T03:04:59.217Z,14.23
2022-08-20T03:10:02.008Z,15.77
2022-08-20T03:15:08.227Z,16.67
2022-08-20T03:20:23.883Z,16.83
2022-08-20T03:25:26.838Z,17.38
2022-08-20T03:30:30.475Z,16.92
2022-08-20T03:35:34.014Z,16.02
2022-08-20T03:40:38.004Z,13.57
2022-08-20T03:45:43.927Z,12.45
2022-08-20T03:50:48.422Z,10.88
2022-08-20T03:55:56.415Z,9.95
2022-08-20T04:01:01.209Z,9.73
2022-08-20T04:06:03.830Z,8.63
2022-08-20T04:11:06.216Z,8.30
2022-08-20T04:16:13.371Z,7.72
2022-08-20T04:21:16.568Z,6.57
2022-08-20T04:26:20.033Z,6.10
2022-08-20T04:31:25.405Z,6.07
2022-08-20T04:36:27.891Z,6.00
2022-08-20T04:41:30.123Z,5.82
2022-08-20T04:46:32.728Z,5.28
2022-08-20T04:51:34.974Z,5.63
2022-08-20T04:56:39.810Z,5.10
2022-08-20T05:01:42.012Z,5.70
2022-08-20T05:06:44.978Z,4.47
2022-08-20T05:11:47.131Z,4.53
2022-08-20T05:16:50.939Z,4.90
2022-08-20T05:21:53.811Z,5.47
2022-08-20T05:26:56.166Z,4.78
2022-08-20T05:31:58.253Z,5.22
2022-08-20T05:37:04.276Z,5.30
2022-08-20T05:42:11.302Z,6.30
2022-08-20T05:47:14.090Z,5.70
2022-08-20T05:52:16.438Z,5.07
2022-08-20T05:57:20.280Z,5.22
2022-08-20T06:02:40.833Z,5.18
2022-08-20T06:07:43.281Z,3.90
2022-08-20T06:12:45.601Z,3.55
2022-08-20T06:17:51.217Z,4.10
2022-08-20T06:23:00.689Z,3.83
2022-08-20T06:28:03.887Z,3.67
2022-08-20T06:33:06.343Z,3.00
2022-08-20T06:38:11.342Z,2.92
2022-08-20T06:43:13.657Z,2.75
2022-08-20T06:48:17.337Z,2.80
2022-08-20T06:53:20.978Z,3.30
2022-08-20T06:58:36.870Z,3.40
2022-08-20T07:03:54.780Z,2.63
2022-08-20T07:08:58.093Z,2.58
2022-08-20T07:14:01.395Z,2.83
2022-08-20T07:19:04.030Z,2.30
2022-08-20T07:24:06.743Z,2.15
2022-08-20T07:29:08.844Z,2.50
2022-08-20T07:34:11.746Z,2.58
2022-08-20T07:39:14.726Z,2.95
2022-08-20T07:44:17.528Z,2.20
2022-08-20T07:49:19.655Z,2.78
2022-08-20T07:54:21.847Z,2.58
2022-08-20T07:59:24.131Z,2.50
2022-08-20T08:04:26.394Z,2.85
2022-08-20T08:09:29.059Z,2.83
2022-08-20T08:14:34.323Z,2.42
2022-08-20T08:19:43.202Z,2.67
2022-08-20T08:24:56.825Z,2.25
2022-08-20T08:30:01.218Z,2.35
2022-08-20T08:35:09.159Z,2.05
2022-08-20T08:40:11.676Z,2.10
2022-08-20T08:45:17.411Z,2.08
2022-08-20T08:50:50.006Z,2.85
2022-08-20T08:55:48.799Z,2.75
2022-08-20T09:00:56.143Z,2.80
2022-08-20T09:06:01.392Z,4.85
2022-08-20T09:11:06.363Z,2.47
2022-08-20T09:16:08.690Z,2.80
2022-08-20T09:21:11.117Z,3.28
2022-08-20T09:26:13.799Z,4.18
2022-08-20T09:31:16.035Z,3.45
2022-08-20T09:36:32.159Z,3.05
2022-08-20T09:41:35.036Z,4.18
2022-08-20T09:46:37.335Z,4.85
2022-08-20T09:51:39.513Z,5.53
2022-08-20T09:56:41.890Z,5.55
2022-08-20T10:01:44.157Z,10.43
2022-08-20T10:06:46.442Z,7.53
2022-08-20T10:11:48.584Z,5.97
2022-08-20T10:16:56.520Z,5.22
2022-08-20T10:22:02.646Z,5.50
2022-08-20T10:27:05.169Z,7.07
2022-08-20T10:32:12.990Z,6.97
2022-08-20T10:37:17.892Z,6.78
2022-08-20T10:42:20.367Z,5.07
2022-08-20T10:47:28.648Z,4.57
2022-08-20T10:52:31.003Z,4.18
2022-08-20T10:57:34.378Z,4.32
2022-08-20T11:02:36.877Z,4.10
2022-08-20T11:07:50.741Z,3.38
2022-08-20T11:13:04.315Z,3.70
2022-08-20T11:18:06.972Z,3.15
2022-08-20T11:23:09.244Z,3.58
2022-08-20T11:28:13.017Z,3.78
2022-08-20T11:33:15.260Z,3.33
2022-08-20T11:38:18.574Z,2.85
2022-08-20T11:43:20.821Z,2.38
2022-08-20T11:48:23.160Z,2.55
2022-08-20T11:53:25.474Z,3.28
2022-08-20T11:58:27.687Z,2.50
2022-08-20T12:03:31.116Z,2.85
2022-08-20T12:08:33.305Z,2.53
2022-08-20T12:13:47.135Z,2.40
2022-08-20T12:18:52.027Z,2.63
2022-08-20T12:23:54.194Z,2.13
2022-08-20T12:28:56.431Z,2.05
2022-08-20T12:33:58.779Z,2.72
2022-08-20T12:39:01.050Z,3.25
2022-08-20T12:44:07.106Z,2.97
2022-08-20T12:49:18.455Z,2.38
2022-08-20T12:54:20.535Z,1.88
2022-08-20T12:59:26.116Z,1.90
2022-08-20T13:04:28.557Z,2.35
2022-08-20T13:09:31.594Z,1.90
2022-08-20T13:14:34.891Z,2.53
2022-08-20T13:19:38.599Z,2.20
2022-08-20T13:24:40.902Z,2.83
2022-08-20T13:29:54.089Z,3.08
2022-08-20T13:35:00.146Z,3.15
2022-08-20T13:40:02.751Z,2.83
2022-08-20T13:45:06.435Z,3.17
2022-08-20T13:50:18.747Z,3.15
2022-08-20T13:55:23.370Z,2.80
2022-08-20T14:00:32.357Z,3.22
2022-08-20T14:05:35.559Z,2.90
2022-08-20T14:10:38.272Z,2.78
2022-08-20T14:15:41.554Z,3.03
2022-08-20T14:20:45.421Z,2.47
2022-08-20T14:25:50.363Z,3.00
2022-08-20T14:30:53.627Z,3.42
2022-08-20T14:35:55.950Z,2.50
2022-08-20T14:40:58.124Z,2.30
2022-08-20T14:46:00.270Z,2.10
2022-08-20T14:51:03.241Z,2.25
2022-08-20T14:56:05.689Z,2.85
2022-08-20T15:01:07.996Z,4.72
2022-08-20T15:06:21.884Z,2.22
2022-08-20T15:11:24.812Z,2.03
2022-08-20T15:16:28.209Z,1.73
2022-08-20T15:21:44.809Z,1.63
2022-08-20T15:26:48.519Z,1.80
2022-08-20T15:31:51.552Z,1.50
2022-08-20T15:36:53.769Z,1.30
2022-08-20T15:41:55.977Z,2.47
2022-08-20T15:47:23.722Z,2.83
2022-08-20T15:52:31.058Z,1.98
2022-08-20T15:58:04.062Z,2.17
2022-08-20T16:03:32.302Z,2.15
2022-08-20T16:09:05.126Z,2.85
2022-08-20T16:14:19.615Z,2.40
2022-08-20T16:19:26.139Z,2.60
2022-08-20T16:24:28.653Z,2.95
2022-08-20T16:30:04.869Z,2.47
2022-08-20T16:35:29.421Z,2.33
2022-08-20T16:40:51.935Z,2.92
2022-08-20T16:46:12.889Z,2.53
2022-08-20T16:51:27.481Z,2.73
2022-08-20T16:56:34.493Z,2.67
2022-08-20T17:01:37.920Z,6.38
2022-08-20T17:06:46.375Z,5.82
2022-08-20T17:11:49.439Z,2.55
2022-08-20T17:16:52.818Z,2.80
2022-08-20T17:21:57.154Z,3.78
2022-08-20T17:27:10.042Z,2.83
2022-08-20T17:32:22.653Z,2.70
2022-08-20T17:37:33.448Z,2.80
2022-08-20T17:42:57.246Z,2.47
2022-08-20T17:48:01.170Z,2.45
2022-08-20T17:53:27.465Z,2.38
2022-08-20T17:58:38.102Z,2.45
2022-08-20T18:03:40.623Z,2.60
2022-08-20T18:08:52.711Z,3.13
2022-08-20T18:14:11.412Z,2.55
2022-08-20T18:19:22.123Z,2.90
2022-08-20T18:24:34.034Z,2.88
2022-08-20T18:34:42.215Z,2.92
2022-08-20T18:39:47.016Z,2.80
2022-08-20T18:44:52.486Z,3.30
2022-08-20T18:50:06.500Z,3.88
2022-08-20T18:55:28.115Z,3.80
2022-08-20T19:00:43.991Z,3.40
2022-08-20T19:05:46.262Z,3.00
2022-08-20T19:11:24.432Z,3.20
2022-08-20T19:16:37.283Z,3.25
2022-08-20T19:21:43.616Z,3.08
2022-08-20T19:26:52.216Z,3.20
2022-08-20T19:32:02.993Z,3.20
2022-08-20T19:37:35.761Z,3.17
2022-08-20T19:42:42.392Z,3.03
2022-08-20T19:48:02.719Z,2.67
2022-08-20T19:53:30.819Z,3.15
2022-08-20T19:58:33.988Z,2.88
2022-08-20T20:03:37.986Z,2.70
2022-08-20T20:08:44.567Z,3.47
2022-08-20T20:13:47.166Z,3.00
2022-08-20T20:19:09.114Z,3.03
2022-08-20T20:24:22.404Z,4.90
2022-08-20T20:29:28.071Z,3.28
2022-08-20T20:34:38.121Z,3.47
2022-08-20T20:40:27.289Z,3.95
2022-08-20T20:45:35.033Z,4.03
2022-08-20T20:50:40.333Z,3.15
2022-08-20T20:55:54.624Z,3.50
2022-08-20T21:00:56.778Z,3.20
2022-08-20T21:05:58.886Z,4.50
2022-08-20T21:11:01.364Z,4.03
2022-08-20T21:16:03.794Z,4.10
2022-08-20T21:21:08.317Z,4.72
2022-08-20T21:26:10.478Z,4.57
2022-08-20T21:31:13.333Z,4.53
2022-08-20T21:36:15.498Z,4.72
2022-08-20T21:41:17.930Z,7.47
2022-08-20T21:46:24.864Z,6.00
2022-08-20T21:51:27.311Z,7.53
2022-08-20T21:56:33.802Z,8.60
2022-08-20T22:01:38.363Z,8.85
2022-08-20T22:06:40.658Z,11.65
2022-08-20T22:11:42.893Z,11.98
2022-08-20T22:16:45.560Z,14.60
2022-08-20T22:21:49.526Z,15.80
2022-08-20T22:26:52.184Z,16.42
2022-08-20T22:31:54.458Z,18.10
2022-08-20T22:36:58.536Z,19.73
2022-08-20T22:42:00.771Z,22.70
2022-08-20T22:47:07.182Z,22.13
2022-08-20T22:52:10.970Z,22.27
2022-08-20T22:57:14.710Z,23.55
2022-08-20T23:02:18.383Z,24.13
2022-08-20T23:07:21.060Z,23.70
2022-08-20T23:12:24.131Z,24.35
2022-08-20T23:17:26.578Z,24.10
2022-08-20T23:22:29.032Z,24.73
2022-08-20T23:27:32.902Z,24.67
2022-08-20T23:32:35.044Z,25.85
2022-08-20T23:37:45.892Z,25.92
2022-08-20T23:42:48.219Z,26.50
2022-08-20T23:47:50.457Z,26.60
2022-08-20T23:52:54.070Z,26.50
2022-08-20T23:57:56.436Z,25.30
